createdAt,value
2022-11-16T00:00:45.505Z,58.22
2022-11-16T00:03:48.755Z,72.40
2022-11-16T00:06:51.589Z,96.20
2022-11-16T00:09:55.876Z,53.20
2022-11-16T00:12:58.478Z,54.65
2022-11-16T00:16:01.890Z,56.42
2022-11-16T00:19:05.963Z,57.33
2022-11-16T00:22:08.941Z,60.43
2022-11-16T00:25:11.586Z,38.75
2022-11-16T00:28:14.765Z,78.30
2022-11-16T00:31:17.530Z,68.12
2022-11-16T00:34:21.382Z,77.03
2022-11-16T00:37:23.903Z,42.70
2022-11-16T00:40:26.837Z,80.50
2022-11-16T00:43:29.373Z,42.33
2022-11-16T00:46:32.303Z,57.47
2022-11-16T00:49:34.876Z,62.90
2022-11-16T00:52:38.190Z,56.33
2022-11-16T00:55:40.944Z,122.95
2022-11-16T00:58:44.643Z,47.20
2022-11-16T01:01:47.751Z,56.17
2022-11-16T01:04:50.761Z,99.05
2022-11-16T01:07:53.696Z,95.20
2022-11-16T01:11:16.553Z,98.45
2022-11-16T01:14:19.074Z,101.25
2022-11-16T01:17:21.922Z,100.05
2022-11-16T01:20:29.176Z,107.82
2022-11-16T01:23:32.093Z,168.67
2022-11-16T01:26:34.672Z,75.62
2022-11-16T01:29:37.480Z,116.05
2022-11-16T01:32:40.667Z,63.85
2022-11-16T01:35:43.891Z,71.87
2022-11-16T01:38:47.662Z,133.73
2022-11-16T01:41:51.771Z,62.38
2022-11-16T01:45:02.558Z,79.60
2022-11-16T01:48:05.631Z,85.90
2022-11-16T01:51:08.782Z,97.80
2022-11-16T01:54:13.178Z,117.40
2022-11-16T01:57:29.367Z,115.07
2022-11-16T02:00:33.975Z,80.87
2022-11-16T02:03:38.151Z,80.90
2022-11-16T02:06:59.956Z,167.65
2022-11-16T02:10:50.630Z,132.60
2022-11-16T02:14:08.701Z,94.15
2022-11-16T02:17:30.316Z,84.72
2022-11-16T02:20:39.605Z,116.03
2022-11-16T02:23:51.760Z,121.35
2022-11-16T02:27:06.406Z,106.30
2022-11-16T02:30:09.586Z,123.47
2022-11-16T02:33:18.940Z,105.03
2022-11-16T02:36:23.983Z,60.95
2022-11-16T02:39:28.574Z,136.85
2022-11-16T02:42:36.724Z,73.87
2022-11-16T02:45:43.743Z,95.40
2022-11-16T02:48:50.584Z,85.30
2022-11-16T02:51:53.680Z,58.05
2022-11-16T02:54:56.562Z,104.57
2022-11-16T02:58:01.326Z,97.20
2022-11-16T03:01:12.929Z,112.47
2022-11-16T03:04:20.255Z,140.50
2022-11-16T03:07:27.399Z,58.40
2022-11-16T03:10:49.571Z,77.55
2022-11-16T03:13:56.484Z,106.93
2022-11-16T03:17:00.963Z,186.45
2022-11-16T03:20:09.924Z,57.47
2022-11-16T03:23:14.084Z,69.45
2022-11-16T03:26:20.803Z,123.95
2022-11-16T03:29:31.315Z,136.57
2022-11-16T03:33:18.395Z,121.35
2022-11-16T03:36:26.616Z,99.15
2022-11-16T03:39:33.542Z,186.57
2022-11-16T03:42:37.977Z,126.72
2022-11-16T03:45:41.404Z,167.70
2022-11-16T03:48:44.488Z,199.93
2022-11-16T03:51:49.072Z,140.85
2022-11-16T03:54:52.016Z,78.18
2022-11-16T03:57:54.950Z,63.85
2022-11-16T04:00:57.756Z,98.87
2022-11-16T04:04:03.661Z,90.82
2022-11-16T04:07:25.051Z,82.97
2022-11-16T04:10:47.847Z,59.05
2022-11-16T04:14:09.697Z,107.82
2022-11-16T04:17:34.220Z,42.20
2022-11-16T04:20:55.360Z,57.90
2022-11-16T04:24:18.598Z,46.13
2022-11-16T04:27:45.309Z,38.40
2022-11-16T04:31:16.301Z,49.20
2022-11-16T04:34:37.754Z,37.17
2022-11-16T04:37:50.122Z,37.88
2022-11-16T04:40:53.800Z,55.45
2022-11-16T04:43:58.972Z,47.13
2022-11-16T04:47:07.041Z,49.03
2022-11-16T04:50:10.307Z,38.93
2022-11-16T04:53:14.265Z,51.50
2022-11-16T04:56:18.193Z,39.95
2022-11-16T04:59:22.560Z,34.15
2022-11-16T05:02:25.978Z,39.00
2022-11-16T05:05:28.967Z,34.53
2022-11-16T05:08:32.943Z,60.08
2022-11-16T05:11:36.118Z,35.13
2022-11-16T05:14:39.129Z,34.30
2022-11-16T05:17:41.930Z,44.60
2022-11-16T05:21:01.253Z,52.77
2022-11-16T05:24:23.762Z,49.83
2022-11-16T05:27:28.391Z,107.22
2022-11-16T05:30:31.433Z,112.32
2022-11-16T05:33:34.667Z,47.38
2022-11-16T05:36:38.625Z,54.23
2022-11-16T05:39:42.435Z,57.53
2022-11-16T05:42:45.225Z,53.55
2022-11-16T05:45:48.188Z,51.33
2022-11-16T05:48:51.624Z,46.35
2022-11-16T05:51:54.646Z,57.57
2022-11-16T05:54:57.476Z,56.67
2022-11-16T05:58:00.578Z,83.37
2022-11-16T06:01:04.128Z,110.78
2022-11-16T06:04:08.085Z,56.97
2022-11-16T06:07:10.767Z,37.70
2022-11-16T06:10:13.907Z,126.28
2022-11-16T06:13:17.657Z,40.50
2022-11-16T06:16:21.354Z,64.00
2022-11-16T06:19:28.226Z,74.28
2022-11-16T06:22:34.162Z,37.73
2022-11-16T06:25:38.813Z,40.80
2022-11-16T06:28:41.862Z,74.03
2022-11-16T06:31:44.557Z,49.22
2022-11-16T06:34:48.229Z,40.47
2022-11-16T06:37:51.289Z,74.30
2022-11-16T06:40:57.465Z,79.93
2022-11-16T06:44:00.670Z,68.43
2022-11-16T06:47:04.979Z,106.97
2022-11-16T06:50:09.222Z,50.50
2022-11-16T06:53:12.160Z,82.67
2022-11-16T06:56:16.169Z,53.78
2022-11-16T06:59:19.957Z,107.35
2022-11-16T07:02:23.256Z,80.53
2022-11-16T07:05:26.276Z,141.75
2022-11-16T07:08:30.526Z,116.60
2022-11-16T07:11:37.301Z,69.60
2022-11-16T07:14:40.852Z,50.30
2022-11-16T07:17:44.397Z,138.90
2022-11-16T07:20:47.053Z,99.53
2022-11-16T07:23:49.944Z,101.33
2022-11-16T07:26:53.179Z,75.12
2022-11-16T07:29:56.775Z,80.00
2022-11-16T07:32:59.777Z,101.43
2022-11-16T07:36:08.600Z,75.90
2022-11-16T07:39:11.359Z,103.00
2022-11-16T07:42:14.794Z,200.65
2022-11-16T07:45:18.924Z,83.50
2022-11-16T07:48:23.314Z,106.40
2022-11-16T07:51:29.637Z,103.40
2022-11-16T07:54:34.077Z,131.83
2022-11-16T07:57:36.856Z,100.75
2022-11-16T08:00:40.304Z,151.27
2022-11-16T08:03:44.778Z,167.23
2022-11-16T08:06:51.751Z,117.28
2022-11-16T08:09:55.594Z,120.87
2022-11-16T08:12:58.649Z,93.40
2022-11-16T08:16:10.701Z,80.50
2022-11-16T08:19:14.171Z,92.15
2022-11-16T08:22:17.000Z,59.45
2022-11-16T08:25:20.067Z,125.70
2022-11-16T08:28:23.602Z,70.70
2022-11-16T08:31:29.307Z,56.90
2022-11-16T08:34:34.087Z,149.20
2022-11-16T08:37:36.770Z,111.62
2022-11-16T08:40:40.449Z,79.80
2022-11-16T08:43:44.698Z,61.25
2022-11-16T08:46:48.782Z,55.97
2022-11-16T08:49:52.257Z,50.10
2022-11-16T08:52:57.478Z,99.10
2022-11-16T08:56:05.450Z,137.40
2022-11-16T08:59:08.632Z,77.55
2022-11-16T09:02:15.369Z,94.07
2022-11-16T09:05:18.290Z,45.12
2022-11-16T09:08:20.879Z,83.53
2022-11-16T09:11:25.368Z,117.00
2022-11-16T09:14:29.070Z,115.22
2022-11-16T09:17:32.225Z,67.87
2022-11-16T09:20:34.859Z,77.75
2022-11-16T09:23:37.773Z,121.25
2022-11-16T09:26:40.938Z,71.77
2022-11-16T09:29:44.130Z,73.62
2022-11-16T09:32:46.679Z,152.25
2022-11-16T09:35:49.561Z,88.82
2022-11-16T09:39:23.651Z,57.35
2022-11-16T09:42:29.787Z,74.70
2022-11-16T09:45:48.622Z,67.57
2022-11-16T09:48:52.191Z,138.77
2022-11-16T09:51:59.297Z,136.85
2022-11-16T09:55:15.926Z,77.47
2022-11-16T09:58:27.657Z,73.63
2022-11-16T10:01:41.740Z,137.57
2022-11-16T10:05:04.830Z,84.82
2022-11-16T10:08:18.435Z,109.82
2022-11-16T10:11:36.998Z,71.85
2022-11-16T10:15:04.718Z,71.67
2022-11-16T10:18:19.922Z,145.35
2022-11-16T10:22:02.622Z,147.15
2022-11-16T10:25:15.212Z,172.73
2022-11-16T10:28:47.063Z,89.65
2022-11-16T10:32:15.525Z,59.43
2022-11-16T10:35:25.333Z,85.32
2022-11-16T10:38:31.162Z,116.10
2022-11-16T10:41:49.487Z,68.72
2022-11-16T10:45:20.704Z,62.20
2022-11-16T10:48:43.402Z,188.53
2022-11-16T10:51:49.190Z,86.30
2022-11-16T10:54:52.648Z,109.60
2022-11-16T10:58:04.029Z,75.62
2022-11-16T11:01:10.642Z,139.45
2022-11-16T11:04:31.549Z,123.47
2022-11-16T11:07:37.874Z,200.80
2022-11-16T11:10:43.238Z,213.57
2022-11-16T11:13:46.025Z,120.28
2022-11-16T11:16:53.364Z,115.88
2022-11-16T11:20:06.544Z,189.10
2022-11-16T11:23:16.249Z,187.15
2022-11-16T11:26:39.697Z,171.43
2022-11-16T11:29:43.246Z,192.68
2022-11-16T11:32:46.475Z,69.07
2022-11-16T11:36:19.249Z,167.57
2022-11-16T11:39:21.869Z,251.05
2022-11-16T11:42:25.155Z,208.48
2022-11-16T11:45:39.242Z,84.93
2022-11-16T11:49:00.047Z,87.28
2022-11-16T11:52:36.942Z,97.47
2022-11-16T11:55:39.947Z,80.05
2022-11-16T11:58:43.013Z,222.48
2022-11-16T12:02:06.627Z,81.47
2022-11-16T12:05:21.096Z,61.70
2022-11-16T12:08:38.776Z,88.80
2022-11-16T12:11:44.235Z,130.25
2022-11-16T12:15:15.946Z,159.87
2022-11-16T12:18:56.516Z,98.45
2022-11-16T12:22:22.715Z,76.15
2022-11-16T12:25:31.133Z,50.60
2022-11-16T12:29:03.011Z,58.50
2022-11-16T12:32:09.060Z,143.35
2022-11-16T12:35:42.517Z,119.78
2022-11-16T12:38:50.336Z,129.87
2022-11-16T12:41:52.811Z,157.07
2022-11-16T12:44:55.667Z,163.77
2022-11-16T12:48:32.052Z,118.40
2022-11-16T12:51:45.088Z,81.95
2022-11-16T12:55:36.548Z,58.42
2022-11-16T12:59:09.822Z,47.77
2022-11-16T13:02:22.840Z,81.80
2022-11-16T13:05:47.173Z,93.35
2022-11-16T13:09:21.711Z,48.13
2022-11-16T13:12:25.480Z,43.03
2022-11-16T13:15:37.208Z,37.47
2022-11-16T13:18:42.773Z,50.40
2022-11-16T13:22:23.854Z,43.35
2022-11-16T13:25:33.015Z,38.50
2022-11-16T13:28:38.642Z,54.17
2022-11-16T13:31:55.855Z,35.50
2022-11-16T13:34:59.850Z,48.35
2022-11-16T13:38:02.755Z,66.07
2022-11-16T13:41:28.413Z,36.58
2022-11-16T13:44:31.630Z,38.03
2022-11-16T13:47:34.340Z,47.47
2022-11-16T13:50:47.506Z,42.28
2022-11-16T13:54:43.162Z,33.85
2022-11-16T13:57:32.288Z,69.10
2022-11-16T14:00:37.173Z,68.60
2022-11-16T14:03:41.225Z,36.40
2022-11-16T14:06:54.591Z,35.25
2022-11-16T14:09:57.634Z,27.45
2022-11-16T14:13:04.517Z,35.30
2022-11-16T14:16:19.774Z,29.85
2022-11-16T14:19:57.812Z,31.83
2022-11-16T14:23:46.587Z,25.33
2022-11-16T14:27:15.721Z,27.98
2022-11-16T14:30:25.071Z,31.90
2022-11-16T14:33:33.879Z,31.95
2022-11-16T14:36:42.366Z,26.07
2022-11-16T14:39:45.386Z,28.95
2022-11-16T14:43:16.427Z,27.45
2022-11-16T14:46:22.927Z,26.42
2022-11-16T14:49:27.154Z,28.20
2022-11-16T14:52:40.650Z,28.70
2022-11-16T14:55:46.159Z,52.08
2022-11-16T14:58:53.937Z,31.77
2022-11-16T15:01:57.854Z,175.82
2022-11-16T15:05:01.726Z,45.35
2022-11-16T15:08:14.078Z,63.40
2022-11-16T15:11:57.524Z,60.05
2022-11-16T15:15:28.360Z,31.62
2022-11-16T15:18:31.298Z,46.00
2022-11-16T15:21:34.125Z,64.07
2022-11-16T15:24:36.933Z,42.73
2022-11-16T15:27:43.124Z,38.55
2022-11-16T15:30:48.892Z,33.85
2022-11-16T15:33:52.110Z,80.43
2022-11-16T15:36:54.643Z,36.58
2022-11-16T15:39:58.718Z,72.07
2022-11-16T15:43:03.088Z,47.05
2022-11-16T15:46:06.891Z,83.28
2022-11-16T15:49:27.830Z,56.65
2022-11-16T15:52:44.555Z,80.40
2022-11-16T15:55:49.771Z,41.57
2022-11-16T15:58:57.784Z,74.22
2022-11-16T16:02:00.571Z,123.30
2022-11-16T16:05:03.550Z,58.20
2022-11-16T16:08:22.271Z,80.72
2022-11-16T16:11:27.129Z,73.77
2022-11-16T16:14:31.423Z,60.30
2022-11-16T16:17:34.421Z,86.70
2022-11-16T16:20:37.877Z,49.53
2022-11-16T16:23:49.713Z,134.57
2022-11-16T16:26:52.268Z,42.67
2022-11-16T16:29:57.312Z,63.40
2022-11-16T16:33:00.031Z,43.25
2022-11-16T16:36:03.473Z,105.87
2022-11-16T16:39:07.341Z,37.13
2022-11-16T16:42:15.002Z,57.30
2022-11-16T16:45:25.135Z,34.80
2022-11-16T16:48:28.173Z,32.10
2022-11-16T16:51:32.831Z,33.10
2022-11-16T16:54:38.705Z,34.42
2022-11-16T16:57:41.437Z,29.90
2022-11-16T17:00:44.677Z,93.80
2022-11-16T17:03:48.479Z,48.33
2022-11-16T17:06:52.628Z,35.78
2022-11-16T17:09:56.313Z,40.85
2022-11-16T17:12:59.589Z,50.67
2022-11-16T17:16:04.971Z,55.65
2022-11-16T17:19:11.831Z,71.80
2022-11-16T17:22:14.944Z,41.25
2022-11-16T17:25:17.825Z,54.67
2022-11-16T17:28:20.775Z,40.53
2022-11-16T17:31:25.117Z,69.85
2022-11-16T17:34:28.192Z,35.95
2022-11-16T17:37:31.317Z,47.83
2022-11-16T17:40:34.995Z,135.00
2022-11-16T17:43:39.113Z,39.93
2022-11-16T17:46:41.740Z,38.13
2022-11-16T17:49:46.143Z,35.58
2022-11-16T17:52:48.677Z,30.75
2022-11-16T17:55:54.318Z,37.63
2022-11-16T17:58:58.523Z,34.67
2022-11-16T18:02:04.123Z,33.95
2022-11-16T18:05:07.618Z,28.10
2022-11-16T18:08:10.380Z,31.67
2022-11-16T18:11:25.078Z,31.00
2022-11-16T18:14:27.854Z,33.37
2022-11-16T18:17:31.368Z,26.90
2022-11-16T18:20:37.851Z,27.20
2022-11-16T18:23:41.125Z,28.45
2022-11-16T18:26:44.528Z,29.65
2022-11-16T18:29:48.145Z,25.57
2022-11-16T18:32:51.961Z,24.20
2022-11-16T18:35:55.118Z,25.90
2022-11-16T18:38:57.854Z,27.92
2022-11-16T18:42:01.105Z,34.22
2022-11-16T18:45:04.156Z,27.00
2022-11-16T18:48:07.342Z,24.52
2022-11-16T18:51:11.206Z,43.20
2022-11-16T18:54:14.359Z,27.23
2022-11-16T18:57:17.422Z,21.77
2022-11-16T19:00:20.791Z,30.93
2022-11-16T19:03:23.794Z,26.12
2022-11-16T19:06:27.096Z,23.65
2022-11-16T19:09:30.013Z,28.12
2022-11-16T19:12:33.086Z,26.25
2022-11-16T19:15:41.320Z,24.80
2022-11-16T19:18:44.522Z,27.95
2022-11-16T19:21:47.775Z,23.92
2022-11-16T19:24:50.868Z,27.02
2022-11-16T19:27:53.795Z,22.85
2022-11-16T19:30:56.871Z,24.47
2022-11-16T19:34:05.174Z,24.85
2022-11-16T19:37:08.110Z,24.30
2022-11-16T19:40:11.564Z,24.60
2022-11-16T19:43:14.857Z,25.98
2022-11-16T19:46:21.536Z,29.20
2022-11-16T19:49:25.436Z,30.95
2022-11-16T19:52:28.439Z,27.92
2022-11-16T19:55:31.689Z,32.03
2022-11-16T19:58:37.011Z,31.10
2022-11-16T20:01:40.398Z,30.90
2022-11-16T20:04:43.620Z,29.08
2022-11-16T20:07:48.693Z,33.17
2022-11-16T20:10:51.765Z,35.53
2022-11-16T20:13:55.828Z,35.15
2022-11-16T20:16:59.003Z,34.57
2022-11-16T20:20:02.005Z,31.55
2022-11-16T20:23:04.995Z,33.80
2022-11-16T20:26:10.013Z,32.03
2022-11-16T20:29:14.815Z,32.50
2022-11-16T20:32:17.467Z,34.83
2022-11-16T20:35:20.370Z,29.63
2022-11-16T20:38:23.316Z,31.02
2022-11-16T20:41:31.164Z,28.27
2022-11-16T20:44:35.567Z,31.90
2022-11-16T20:47:38.644Z,31.37
2022-11-16T20:50:41.562Z,28.08
2022-11-16T20:53:45.433Z,31.95
2022-11-16T20:56:50.924Z,37.35
2022-11-16T20:59:53.880Z,29.83
2022-11-16T21:02:58.072Z,33.10
2022-11-16T21:06:01.485Z,38.38
2022-11-16T21:09:05.405Z,36.70
2022-11-16T21:12:27.234Z,31.65
2022-11-16T21:15:29.990Z,33.65
2022-11-16T21:18:33.625Z,33.10
2022-11-16T21:21:36.451Z,29.87
2022-11-16T21:24:39.402Z,38.92
2022-11-16T21:27:42.068Z,35.50
2022-11-16T21:30:58.211Z,35.60
2022-11-16T21:34:01.799Z,36.90
2022-11-16T21:37:04.683Z,33.65
2022-11-16T21:40:07.927Z,41.00
2022-11-16T21:43:10.929Z,45.55
2022-11-16T21:46:25.412Z,36.70
2022-11-16T21:49:28.318Z,40.83
2022-11-16T21:52:30.941Z,47.47
2022-11-16T21:55:34.285Z,43.97
2022-11-16T21:58:40.160Z,50.08
2022-11-16T22:02:01.005Z,34.92
2022-11-16T22:05:23.118Z,54.77
2022-11-16T22:08:25.677Z,49.15
2022-11-16T22:11:31.498Z,46.65
2022-11-16T22:14:34.097Z,42.42
2022-11-16T22:17:36.880Z,43.13
2022-11-16T22:20:46.783Z,43.83
2022-11-16T22:23:49.653Z,43.20
2022-11-16T22:26:52.545Z,45.08
2022-11-16T22:29:55.444Z,39.70
2022-11-16T22:32:58.198Z,42.60
2022-11-16T22:36:01.628Z,39.87
2022-11-16T22:39:04.382Z,39.45
2022-11-16T22:42:07.289Z,41.90
2022-11-16T22:45:10.395Z,50.47
2022-11-16T22:48:13.270Z,40.78
2022-11-16T22:51:21.611Z,41.37
2022-11-16T22:54:28.455Z,45.65
2022-11-16T22:57:31.439Z,46.67
2022-11-16T23:00:40.656Z,43.55
2022-11-16T23:03:44.863Z,46.35
2022-11-16T23:06:47.843Z,44.97
2022-11-16T23:09:50.466Z,46.97
2022-11-16T23:13:12.533Z,41.58
2022-11-16T23:16:15.300Z,40.75
2022-11-16T23:19:38.266Z,39.47
2022-11-16T23:22:59.394Z,37.30
2022-11-16T23:26:22.233Z,40.50
2022-11-16T23:29:24.758Z,41.00
2022-11-16T23:32:28.670Z,39.67
2022-11-16T23:35:31.199Z,43.05
2022-11-16T23:38:34.581Z,36.47
2022-11-16T23:41:56.150Z,37.28
2022-11-16T23:44:59.124Z,35.72
2022-11-16T23:48:02.315Z,41.92
2022-11-16T23:51:05.290Z,37.00
2022-11-16T23:54:07.947Z,42.17
2022-11-16T23:57:10.846Z,39.88
